sensor_id;sensor_type;location;lat;lon;timestamp;temperature;humidity
57466;DHT22;67033;44.984;20.068;2023-03-21T00:01:11;12.30;99.90
57466;DHT22;67033;44.984;20.068;2023-03-21T00:03:37;12.30;99.90
57466;DHT22;67033;44.984;20.068;2023-03-21T00:06:05;12.20;99.90
57466;DHT22;67033;44.984;20.068;2023-03-21T00:08:31;12.30;99.90
57466;DHT22;67033;44.984;20.068;2023-03-21T00:10:59;12.30;99.90
57466;DHT22;67033;44.984;20.068;2023-03-21T00:13:27;12.30;99.90
57466;DHT22;67033;44.984;20.068;2023-03-21T00:16:08;12.30;99.90
57466;DHT22;67033;44.984;20.068;2023-03-21T00:18:35;12.30;99.90
57466;DHT22;67033;44.984;20.068;2023-03-21T00:21:09;12.30;99.90
57466;DHT22;67033;44.984;20.068;2023-03-21T00:23:36;12.30;99.90
57466;DHT22;67033;44.984;20.068;2023-03-21T00:26:02;12.20;99.90
57466;DHT22;67033;44.984;20.068;2023-03-21T00:28:28;12.20;99.90
57466;DHT22;67033;44.984;20.068;2023-03-21T00:30:57;12.10;99.90
57466;DHT22;67033;44.984;20.068;2023-03-21T00:33:24;12.10;99.90
57466;DHT22;67033;44.984;20.068;2023-03-21T00:35:50;12.10;99.90
57466;DHT22;67033;44.984;20.068;2023-03-21T00:38:17;12.10;99.90
57466;DHT22;67033;44.984;20.068;2023-03-21T00:40:43;12.10;99.90
57466;DHT22;67033;44.984;20.068;2023-03-21T00:43:10;12.10;99.90
57466;DHT22;67033;44.984;20.068;2023-03-21T00:45:49;12.00;99.90
57466;DHT22;67033;44.984;20.068;2023-03-21T00:48:16;12.10;99.90
57466;DHT22;67033;44.984;20.068;2023-03-21T00:50:44;12.10;99.90
57466;DHT22;67033;44.984;20.068;2023-03-21T00:53:12;12.20;99.90
57466;DHT22;67033;44.984;20.068;2023-03-21T00:55:39;12.10;99.90
57466;DHT22;67033;44.984;20.068;2023-03-21T00:58:05;12.10;99.90
57466;DHT22;67033;44.984;20.068;2023-03-21T01:00:31;12.00;99.90
57466;DHT22;67033;44.984;20.068;2023-03-21T01:02:58;12.00;99.90
57466;DHT22;67033;44.984;20.068;2023-03-21T01:05:32;12.00;99.90
57466;DHT22;67033;44.984;20.068;2023-03-21T01:08:36;12.10;99.90
57466;DHT22;67033;44.984;20.068;2023-03-21T01:11:06;12.00;99.90
57466;DHT22;67033;44.984;20.068;2023-03-21T01:13:32;12.00;99.90
57466;DHT22;67033;44.984;20.068;2023-03-21T01:15:59;12.00;99.90
57466;DHT22;67033;44.984;20.068;2023-03-21T01:18:27;11.90;99.90
57466;DHT22;67033;44.984;20.068;2023-03-21T01:20:57;12.00;99.90
57466;DHT22;67033;44.984;20.068;2023-03-21T01:23:23;12.10;99.90
57466;DHT22;67033;44.984;20.068;2023-03-21T01:25:52;12.10;99.90
57466;DHT22;67033;44.984;20.068;2023-03-21T01:28:18;12.10;99.90
57466;DHT22;67033;44.984;20.068;2023-03-21T01:30:46;12.20;99.90
57466;DHT22;67033;44.984;20.068;2023-03-21T01:33:13;12.20;99.90
57466;DHT22;67033;44.984;20.068;2023-03-21T01:35:40;12.00;99.90
57466;DHT22;67033;44.984;20.068;2023-03-21T01:38:06;11.90;99.90
57466;DHT22;67033;44.984;20.068;2023-03-21T01:40:32;11.80;99.90
57466;DHT22;67033;44.984;20.068;2023-03-21T01:42:58;11.90;99.90
57466;DHT22;67033;44.984;20.068;2023-03-21T01:48:24;11.70;99.90
57466;DHT22;67033;44.984;20.068;2023-03-21T01:50:51;11.70;99.90
57466;DHT22;67033;44.984;20.068;2023-03-21T01:53:23;11.60;99.90
57466;DHT22;67033;44.984;20.068;2023-03-21T01:55:56;11.60;99.90
57466;DHT22;67033;44.984;20.068;2023-03-21T01:58:24;11.60;99.90
57466;DHT22;67033;44.984;20.068;2023-03-21T02:00:51;11.60;99.90
57466;DHT22;67033;44.984;20.068;2023-03-21T02:03:18;11.50;99.90
57466;DHT22;67033;44.984;20.068;2023-03-21T02:06:00;11.50;99.90
57466;DHT22;67033;44.984;20.068;2023-03-21T02:08:31;11.40;99.90
57466;DHT22;67033;44.984;20.068;2023-03-21T02:10:57;11.40;99.90
57466;DHT22;67033;44.984;20.068;2023-03-21T02:13:24;11.30;99.90
57466;DHT22;67033;44.984;20.068;2023-03-21T02:16:08;11.40;99.90
57466;DHT22;67033;44.984;20.068;2023-03-21T02:18:52;11.40;99.90
57466;DHT22;67033;44.984;20.068;2023-03-21T02:27:15;11.40;99.90
57466;DHT22;67033;44.984;20.068;2023-03-21T02:32:25;11.40;99.90
57466;DHT22;67033;44.984;20.068;2023-03-21T02:46:40;11.30;99.90
57466;DHT22;67033;44.984;20.068;2023-03-21T02:49:26;11.30;99.90
57466;DHT22;67033;44.984;20.068;2023-03-21T02:55:48;11.10;99.90
57466;DHT22;67033;44.984;20.068;2023-03-21T02:58:27;11.20;99.90
57466;DHT22;67033;44.984;20.068;2023-03-21T03:00:55;11.10;99.90
57466;DHT22;67033;44.984;20.068;2023-03-21T03:03:22;11.20;99.90
57466;DHT22;67033;44.984;20.068;2023-03-21T03:05:54;11.20;99.90
57466;DHT22;67033;44.984;20.068;2023-03-21T03:08:37;11.20;99.90
57466;DHT22;67033;44.984;20.068;2023-03-21T03:11:26;11.30;99.90
57466;DHT22;67033;44.984;20.068;2023-03-21T03:22:58;11.20;99.90
57466;DHT22;67033;44.984;20.068;2023-03-21T03:25:41;10.90;99.90
57466;DHT22;67033;44.984;20.068;2023-03-21T03:28:11;10.70;99.90
57466;DHT22;67033;44.984;20.068;2023-03-21T03:30:38;10.60;99.90
57466;DHT22;67033;44.984;20.068;2023-03-21T03:33:05;10.40;99.90
57466;DHT22;67033;44.984;20.068;2023-03-21T03:35:33;10.40;99.90
57466;DHT22;67033;44.984;20.068;2023-03-21T03:38:01;10.40;99.90
57466;DHT22;67033;44.984;20.068;2023-03-21T03:40:40;10.50;99.90
57466;DHT22;67033;44.984;20.068;2023-03-21T03:43:15;10.60;99.90
57466;DHT22;67033;44.984;20.068;2023-03-21T03:45:52;10.70;99.90
57466;DHT22;67033;44.984;20.068;2023-03-21T03:48:27;10.70;99.90
57466;DHT22;67033;44.984;20.068;2023-03-21T03:51:05;10.70;99.90
57466;DHT22;67033;44.984;20.068;2023-03-21T03:53:52;10.70;99.90
57466;DHT22;67033;44.984;20.068;2023-03-21T03:56:19;10.70;99.90
57466;DHT22;67033;44.984;20.068;2023-03-21T03:58:45;10.70;99.90
57466;DHT22;67033;44.984;20.068;2023-03-21T04:01:12;10.60;99.90
57466;DHT22;67033;44.984;20.068;2023-03-21T04:03:40;10.60;99.90
57466;DHT22;67033;44.984;20.068;2023-03-21T04:06:07;10.70;99.90
57466;DHT22;67033;44.984;20.068;2023-03-21T04:08:33;10.70;99.90
57466;DHT22;67033;44.984;20.068;2023-03-21T04:11:00;10.50;99.90
57466;DHT22;67033;44.984;20.068;2023-03-21T04:13:27;10.60;99.90
57466;DHT22;67033;44.984;20.068;2023-03-21T04:15:53;10.60;99.90
57466;DHT22;67033;44.984;20.068;2023-03-21T04:18:19;10.70;99.90
57466;DHT22;67033;44.984;20.068;2023-03-21T04:20:47;10.60;99.90
57466;DHT22;67033;44.984;20.068;2023-03-21T04:23:13;10.60;99.90
57466;DHT22;67033;44.984;20.068;2023-03-21T04:25:40;10.50;99.90
57466;DHT22;67033;44.984;20.068;2023-03-21T04:28:06;10.50;99.90
57466;DHT22;67033;44.984;20.068;2023-03-21T04:30:32;10.60;99.90
57466;DHT22;67033;44.984;20.068;2023-03-21T04:32:59;10.50;99.90
57466;DHT22;67033;44.984;20.068;2023-03-21T04:35:26;10.40;99.90
57466;DHT22;67033;44.984;20.068;2023-03-21T04:37:53;10.40;99.90
57466;DHT22;67033;44.984;20.068;2023-03-21T04:40:19;10.50;99.90
57466;DHT22;67033;44.984;20.068;2023-03-21T04:42:46;10.50;99.90
57466;DHT22;67033;44.984;20.068;2023-03-21T04:45:14;10.40;99.90
57466;DHT22;67033;44.984;20.068;2023-03-21T04:47:40;10.40;99.90
57466;DHT22;67033;44.984;20.068;2023-03-21T04:50:08;10.40;99.90
57466;DHT22;67033;44.984;20.068;2023-03-21T04:52:33;10.40;99.90
57466;DHT22;67033;44.984;20.068;2023-03-21T04:54:59;10.40;99.90
57466;DHT22;67033;44.984;20.068;2023-03-21T04:57:26;10.50;99.90
57466;DHT22;67033;44.984;20.068;2023-03-21T04:59:52;10.60;99.90
57466;DHT22;67033;44.984;20.068;2023-03-21T05:02:18;10.60;99.90
57466;DHT22;67033;44.984;20.068;2023-03-21T05:04:44;10.70;99.90
57466;DHT22;67033;44.984;20.068;2023-03-21T05:07:10;10.60;99.90
57466;DHT22;67033;44.984;20.068;2023-03-21T05:09:36;10.60;99.90
57466;DHT22;67033;44.984;20.068;2023-03-21T05:12:02;10.70;99.90
57466;DHT22;67033;44.984;20.068;2023-03-21T05:14:28;10.70;99.90
57466;DHT22;67033;44.984;20.068;2023-03-21T05:16:55;10.70;99.90
57466;DHT22;67033;44.984;20.068;2023-03-21T05:19:29;10.80;99.90
57466;DHT22;67033;44.984;20.068;2023-03-21T05:22:07;10.90;99.90
57466;DHT22;67033;44.984;20.068;2023-03-21T05:24:33;11.00;99.90
57466;DHT22;67033;44.984;20.068;2023-03-21T05:27:01;10.90;99.90
57466;DHT22;67033;44.984;20.068;2023-03-21T05:29:30;10.90;99.90
57466;DHT22;67033;44.984;20.068;2023-03-21T05:31:57;11.10;99.90
57466;DHT22;67033;44.984;20.068;2023-03-21T05:34:23;11.10;99.90
57466;DHT22;67033;44.984;20.068;2023-03-21T05:36:50;11.10;99.90
57466;DHT22;67033;44.984;20.068;2023-03-21T05:39:16;11.10;99.90
57466;DHT22;67033;44.984;20.068;2023-03-21T05:41:42;11.30;99.90
57466;DHT22;67033;44.984;20.068;2023-03-21T05:44:08;11.40;99.90
57466;DHT22;67033;44.984;20.068;2023-03-21T05:46:33;11.40;99.90
57466;DHT22;67033;44.984;20.068;2023-03-21T05:48:59;11.30;99.90
57466;DHT22;67033;44.984;20.068;2023-03-21T05:51:25;11.40;99.90
57466;DHT22;67033;44.984;20.068;2023-03-21T05:53:51;11.40;99.90
57466;DHT22;67033;44.984;20.068;2023-03-21T05:56:17;11.20;99.90
57466;DHT22;67033;44.984;20.068;2023-03-21T05:58:43;11.30;99.90
57466;DHT22;67033;44.984;20.068;2023-03-21T06:01:09;11.40;99.90
57466;DHT22;67033;44.984;20.068;2023-03-21T06:03:35;11.40;99.90
57466;DHT22;67033;44.984;20.068;2023-03-21T06:06:01;11.60;99.90
57466;DHT22;67033;44.984;20.068;2023-03-21T06:08:28;11.60;99.90
57466;DHT22;67033;44.984;20.068;2023-03-21T06:10:54;11.60;99.90
57466;DHT22;67033;44.984;20.068;2023-03-21T06:13:20;11.60;99.90
57466;DHT22;67033;44.984;20.068;2023-03-21T06:15:46;11.60;99.90
57466;DHT22;67033;44.984;20.068;2023-03-21T06:18:12;11.60;99.90
57466;DHT22;67033;44.984;20.068;2023-03-21T06:20:38;11.60;99.90
57466;DHT22;67033;44.984;20.068;2023-03-21T06:23:04;11.70;99.90
57466;DHT22;67033;44.984;20.068;2023-03-21T06:25:30;11.70;99.90
57466;DHT22;67033;44.984;20.068;2023-03-21T06:27:56;11.80;99.90
57466;DHT22;67033;44.984;20.068;2023-03-21T06:30:22;11.80;99.90
57466;DHT22;67033;44.984;20.068;2023-03-21T06:32:48;11.90;99.90
57466;DHT22;67033;44.984;20.068;2023-03-21T06:35:14;11.80;99.90
57466;DHT22;67033;44.984;20.068;2023-03-21T06:37:40;11.80;99.90
57466;DHT22;67033;44.984;20.068;2023-03-21T06:40:07;11.80;99.90
57466;DHT22;67033;44.984;20.068;2023-03-21T06:42:34;11.70;99.90
57466;DHT22;67033;44.984;20.068;2023-03-21T06:45:00;11.70;99.90
57466;DHT22;67033;44.984;20.068;2023-03-21T06:47:26;11.80;99.90
57466;DHT22;67033;44.984;20.068;2023-03-21T06:49:51;11.80;99.90
57466;DHT22;67033;44.984;20.068;2023-03-21T06:52:17;11.70;99.90
57466;DHT22;67033;44.984;20.068;2023-03-21T06:54:43;11.80;99.90
57466;DHT22;67033;44.984;20.068;2023-03-21T06:57:09;11.70;99.90
57466;DHT22;67033;44.984;20.068;2023-03-21T06:59:35;11.80;99.90
57466;DHT22;67033;44.984;20.068;2023-03-21T07:02:01;11.90;99.90
57466;DHT22;67033;44.984;20.068;2023-03-21T07:04:27;11.90;99.90
57466;DHT22;67033;44.984;20.068;2023-03-21T07:06:53;11.90;99.90
57466;DHT22;67033;44.984;20.068;2023-03-21T07:09:19;11.90;99.90
57466;DHT22;67033;44.984;20.068;2023-03-21T07:11:49;12.00;99.90
57466;DHT22;67033;44.984;20.068;2023-03-21T07:14:18;12.20;99.90
57466;DHT22;67033;44.984;20.068;2023-03-21T07:16:44;12.30;99.90
57466;DHT22;67033;44.984;20.068;2023-03-21T07:19:10;12.20;99.90
57466;DHT22;67033;44.984;20.068;2023-03-21T07:21:36;12.30;99.90
57466;DHT22;67033;44.984;20.068;2023-03-21T07:24:01;12.40;99.90
57466;DHT22;67033;44.984;20.068;2023-03-21T07:26:27;12.40;99.90
57466;DHT22;67033;44.984;20.068;2023-03-21T07:28:53;12.50;99.90
57466;DHT22;67033;44.984;20.068;2023-03-21T07:31:20;12.60;99.90
57466;DHT22;67033;44.984;20.068;2023-03-21T07:33:46;12.80;99.90
57466;DHT22;67033;44.984;20.068;2023-03-21T07:36:13;12.90;99.90
57466;DHT22;67033;44.984;20.068;2023-03-21T07:38:40;13.00;99.90
57466;DHT22;67033;44.984;20.068;2023-03-21T07:41:06;13.10;99.90
57466;DHT22;67033;44.984;20.068;2023-03-21T07:43:32;13.20;99.90
57466;DHT22;67033;44.984;20.068;2023-03-21T07:45:59;13.40;99.90
57466;DHT22;67033;44.984;20.068;2023-03-21T07:48:25;13.40;99.90
57466;DHT22;67033;44.984;20.068;2023-03-21T07:50:51;13.60;99.90
57466;DHT22;67033;44.984;20.068;2023-03-21T07:53:16;13.70;99.90
57466;DHT22;67033;44.984;20.068;2023-03-21T07:55:42;13.90;99.90
57466;DHT22;67033;44.984;20.068;2023-03-21T08:00:35;14.10;99.90
57466;DHT22;67033;44.984;20.068;2023-03-21T08:03:01;14.20;99.90
57466;DHT22;67033;44.984;20.068;2023-03-21T08:05:28;14.50;99.90
57466;DHT22;67033;44.984;20.068;2023-03-21T08:07:55;14.50;99.90
57466;DHT22;67033;44.984;20.068;2023-03-21T08:12:48;14.60;99.90
57466;DHT22;67033;44.984;20.068;2023-03-21T08:17:41;14.70;99.90
57466;DHT22;67033;44.984;20.068;2023-03-21T08:20:12;14.80;99.90
57466;DHT22;67033;44.984;20.068;2023-03-21T08:22:38;14.90;99.90
57466;DHT22;67033;44.984;20.068;2023-03-21T08:25:05;14.90;99.90
57466;DHT22;67033;44.984;20.068;2023-03-21T08:27:33;14.90;99.90
57466;DHT22;67033;44.984;20.068;2023-03-21T08:29:59;14.90;99.90
57466;DHT22;67033;44.984;20.068;2023-03-21T08:32:26;14.90;99.90
57466;DHT22;67033;44.984;20.068;2023-03-21T08:35:02;15.10;99.90
57466;DHT22;67033;44.984;20.068;2023-03-21T08:37:29;15.30;99.90
57466;DHT22;67033;44.984;20.068;2023-03-21T08:39:55;15.90;99.90
57466;DHT22;67033;44.984;20.068;2023-03-21T08:42:21;16.10;99.90
57466;DHT22;67033;44.984;20.068;2023-03-21T08:44:48;16.40;99.90
57466;DHT22;67033;44.984;20.068;2023-03-21T08:47:14;16.30;99.90
57466;DHT22;67033;44.984;20.068;2023-03-21T08:49:40;16.20;99.90
57466;DHT22;67033;44.984;20.068;2023-03-21T08:52:07;16.30;99.90
57466;DHT22;67033;44.984;20.068;2023-03-21T08:54:33;16.50;99.90
57466;DHT22;67033;44.984;20.068;2023-03-21T08:56:59;16.80;99.90
57466;DHT22;67033;44.984;20.068;2023-03-21T08:59:25;16.70;99.90
57466;DHT22;67033;44.984;20.068;2023-03-21T09:01:51;16.60;99.90
57466;DHT22;67033;44.984;20.068;2023-03-21T09:04:17;16.70;99.90
57466;DHT22;67033;44.984;20.068;2023-03-21T09:06:45;16.60;99.90
57466;DHT22;67033;44.984;20.068;2023-03-21T09:09:14;16.50;99.90
57466;DHT22;67033;44.984;20.068;2023-03-21T09:11:41;16.60;99.90
57466;DHT22;67033;44.984;20.068;2023-03-21T09:14:07;16.50;99.90
57466;DHT22;67033;44.984;20.068;2023-03-21T09:16:33;16.50;99.90
57466;DHT22;67033;44.984;20.068;2023-03-21T09:19:00;16.40;99.90
57466;DHT22;67033;44.984;20.068;2023-03-21T09:21:27;16.30;99.90
57466;DHT22;67033;44.984;20.068;2023-03-21T09:23:54;16.60;99.90
57466;DHT22;67033;44.984;20.068;2023-03-21T09:26:24;16.70;99.90
57466;DHT22;67033;44.984;20.068;2023-03-21T09:28:51;16.60;99.90
57466;DHT22;67033;44.984;20.068;2023-03-21T09:31:18;16.70;99.90
57466;DHT22;67033;44.984;20.068;2023-03-21T09:33:57;16.80;99.90
57466;DHT22;67033;44.984;20.068;2023-03-21T09:36:24;17.20;99.90
57466;DHT22;67033;44.984;20.068;2023-03-21T09:38:52;17.40;99.90
57466;DHT22;67033;44.984;20.068;2023-03-21T09:41:44;17.80;99.90
57466;DHT22;67033;44.984;20.068;2023-03-21T09:49:34;18.40;96.10
57466;DHT22;67033;44.984;20.068;2023-03-21T09:52:10;18.50;97.60
57466;DHT22;67033;44.984;20.068;2023-03-21T09:54:41;18.60;96.30
57466;DHT22;67033;44.984;20.068;2023-03-21T09:57:21;18.40;94.70
57466;DHT22;67033;44.984;20.068;2023-03-21T09:59:50;18.40;94.40
57466;DHT22;67033;44.984;20.068;2023-03-21T10:05:00;18.60;97.00
57466;DHT22;67033;44.984;20.068;2023-03-21T10:07:30;18.40;92.70
57466;DHT22;67033;44.984;20.068;2023-03-21T10:09:59;18.60;92.40
57466;DHT22;67033;44.984;20.068;2023-03-21T10:12:27;18.70;95.80
57466;DHT22;67033;44.984;20.068;2023-03-21T10:14:56;18.60;93.70
57466;DHT22;67033;44.984;20.068;2023-03-21T10:17:33;18.80;94.30
57466;DHT22;67033;44.984;20.068;2023-03-21T10:20:15;18.70;93.10
57466;DHT22;67033;44.984;20.068;2023-03-21T10:22:43;19.00;91.60
57466;DHT22;67033;44.984;20.068;2023-03-21T10:25:21;19.40;92.60
57466;DHT22;67033;44.984;20.068;2023-03-21T10:27:49;19.80;87.40
57466;DHT22;67033;44.984;20.068;2023-03-21T10:30:37;20.40;90.00
57466;DHT22;67033;44.984;20.068;2023-03-21T10:33:07;20.30;85.10
57466;DHT22;67033;44.984;20.068;2023-03-21T10:35:36;20.40;85.80
57466;DHT22;67033;44.984;20.068;2023-03-21T10:38:05;20.30;85.40
57466;DHT22;67033;44.984;20.068;2023-03-21T10:40:32;20.30;84.20
57466;DHT22;67033;44.984;20.068;2023-03-21T10:43:16;20.30;85.90
57466;DHT22;67033;44.984;20.068;2023-03-21T10:45:45;20.60;83.40
57466;DHT22;67033;44.984;20.068;2023-03-21T10:48:11;20.50;84.40
57466;DHT22;67033;44.984;20.068;2023-03-21T10:50:38;20.70;81.40
57466;DHT22;67033;44.984;20.068;2023-03-21T10:53:20;20.60;80.30
57466;DHT22;67033;44.984;20.068;2023-03-21T10:55:50;20.40;82.50
57466;DHT22;67033;44.984;20.068;2023-03-21T10:58:24;20.20;81.80
57466;DHT22;67033;44.984;20.068;2023-03-21T11:01:00;20.10;91.10
57466;DHT22;67033;44.984;20.068;2023-03-21T11:03:30;20.30;80.80
57466;DHT22;67033;44.984;20.068;2023-03-21T11:06:07;20.30;81.10
57466;DHT22;67033;44.984;20.068;2023-03-21T11:08:43;20.50;81.30
57466;DHT22;67033;44.984;20.068;2023-03-21T11:11:31;20.50;81.90
57466;DHT22;67033;44.984;20.068;2023-03-21T11:14:00;20.30;80.30
57466;DHT22;67033;44.984;20.068;2023-03-21T11:16:35;20.50;83.00
57466;DHT22;67033;44.984;20.068;2023-03-21T11:19:13;20.50;79.60
57466;DHT22;67033;44.984;20.068;2023-03-21T11:21:40;20.40;82.60
57466;DHT22;67033;44.984;20.068;2023-03-21T11:24:15;20.40;82.50
57466;DHT22;67033;44.984;20.068;2023-03-21T11:26:44;20.40;79.30
57466;DHT22;67033;44.984;20.068;2023-03-21T11:32:01;20.60;79.50
57466;DHT22;67033;44.984;20.068;2023-03-21T11:34:51;21.10;79.90
57466;DHT22;67033;44.984;20.068;2023-03-21T11:37:29;20.90;75.10
57466;DHT22;67033;44.984;20.068;2023-03-21T11:40:06;20.20;75.00
57466;DHT22;67033;44.984;20.068;2023-03-21T11:42:42;20.30;78.20
57466;DHT22;67033;44.984;20.068;2023-03-21T11:45:15;20.60;75.50
57466;DHT22;67033;44.984;20.068;2023-03-21T11:47:42;20.80;74.40
57466;DHT22;67033;44.984;20.068;2023-03-21T11:50:33;21.10;74.60
57466;DHT22;67033;44.984;20.068;2023-03-21T11:53:15;21.10;74.60
57466;DHT22;67033;44.984;20.068;2023-03-21T12:04:30;20.50;74.00
57466;DHT22;67033;44.984;20.068;2023-03-21T12:09:48;19.40;74.40
57466;DHT22;67033;44.984;20.068;2023-03-21T12:12:41;19.40;74.90
57466;DHT22;67033;44.984;20.068;2023-03-21T12:17:53;18.80;73.60
57466;DHT22;67033;44.984;20.068;2023-03-21T12:37:00;18.90;72.90
57466;DHT22;67033;44.984;20.068;2023-03-21T12:39:34;19.40;71.30
57466;DHT22;67033;44.984;20.068;2023-03-21T12:44:54;20.60;70.50
57466;DHT22;67033;44.984;20.068;2023-03-21T12:47:26;20.50;67.80
57466;DHT22;67033;44.984;20.068;2023-03-21T12:49:59;20.50;67.80
57466;DHT22;67033;44.984;20.068;2023-03-21T12:52:42;20.70;86.00
57466;DHT22;67033;44.984;20.068;2023-03-21T12:55:28;20.50;93.30
57466;DHT22;67033;44.984;20.068;2023-03-21T12:58:04;19.90;67.60
57466;DHT22;67033;44.984;20.068;2023-03-21T13:00:40;19.90;67.70
57466;DHT22;67033;44.984;20.068;2023-03-21T13:08:38;19.60;74.00
57466;DHT22;67033;44.984;20.068;2023-03-21T13:11:09;19.20;69.60
57466;DHT22;67033;44.984;20.068;2023-03-21T13:13:51;19.00;71.40
57466;DHT22;67033;44.984;20.068;2023-03-21T13:29:47;20.20;85.00
57466;DHT22;67033;44.984;20.068;2023-03-21T13:32:31;20.30;83.40
57466;DHT22;67033;44.984;20.068;2023-03-21T13:37:52;19.60;64.30
57466;DHT22;67033;44.984;20.068;2023-03-21T13:42:57;19.60;64.00
57466;DHT22;67033;44.984;20.068;2023-03-21T13:45:33;19.60;64.00
57466;DHT22;67033;44.984;20.068;2023-03-21T13:48:30;19.50;63.30
57466;DHT22;67033;44.984;20.068;2023-03-21T13:51:00;19.50;65.70
57466;DHT22;67033;44.984;20.068;2023-03-21T13:53:37;19.60;64.20
57466;DHT22;67033;44.984;20.068;2023-03-21T14:06:54;19.60;65.30
57466;DHT22;67033;44.984;20.068;2023-03-21T14:09:27;19.60;64.40
57466;DHT22;67033;44.984;20.068;2023-03-21T14:11:54;19.60;64.90
57466;DHT22;67033;44.984;20.068;2023-03-21T14:14:22;19.60;63.80
57466;DHT22;67033;44.984;20.068;2023-03-21T14:16:52;19.50;65.00
57466;DHT22;67033;44.984;20.068;2023-03-21T14:19:18;19.50;65.40
57466;DHT22;67033;44.984;20.068;2023-03-21T14:21:49;19.50;64.40
57466;DHT22;67033;44.984;20.068;2023-03-21T14:24:17;19.60;64.40
57466;DHT22;67033;44.984;20.068;2023-03-21T14:26:47;19.40;64.10
57466;DHT22;67033;44.984;20.068;2023-03-21T14:29:39;19.50;64.60
57466;DHT22;67033;44.984;20.068;2023-03-21T14:32:13;19.40;65.50
57466;DHT22;67033;44.984;20.068;2023-03-21T14:34:43;19.40;66.30
57466;DHT22;67033;44.984;20.068;2023-03-21T14:37:11;19.50;65.70
57466;DHT22;67033;44.984;20.068;2023-03-21T14:39:37;19.40;64.60
57466;DHT22;67033;44.984;20.068;2023-03-21T14:42:11;19.30;64.50
57466;DHT22;67033;44.984;20.068;2023-03-21T14:44:40;19.40;66.70
57466;DHT22;67033;44.984;20.068;2023-03-21T14:47:18;19.50;66.00
57466;DHT22;67033;44.984;20.068;2023-03-21T14:49:44;19.50;64.60
57466;DHT22;67033;44.984;20.068;2023-03-21T14:52:47;19.00;66.10
57466;DHT22;67033;44.984;20.068;2023-03-21T14:55:13;19.00;66.80
57466;DHT22;67033;44.984;20.068;2023-03-21T14:57:41;18.70;66.70
57466;DHT22;67033;44.984;20.068;2023-03-21T15:00:17;18.40;67.40
57466;DHT22;67033;44.984;20.068;2023-03-21T15:02:45;18.20;68.40
57466;DHT22;67033;44.984;20.068;2023-03-21T15:05:30;18.20;69.00
57466;DHT22;67033;44.984;20.068;2023-03-21T15:08:00;18.00;69.60
57466;DHT22;67033;44.984;20.068;2023-03-21T15:10:27;18.10;82.20
57466;DHT22;67033;44.984;20.068;2023-03-21T15:13:09;18.00;71.30
57466;DHT22;67033;44.984;20.068;2023-03-21T15:15:37;17.90;71.30
57466;DHT22;67033;44.984;20.068;2023-03-21T15:18:05;17.90;75.40
57466;DHT22;67033;44.984;20.068;2023-03-21T15:20:34;17.80;73.10
57466;DHT22;67033;44.984;20.068;2023-03-21T15:23:09;17.70;75.00
57466;DHT22;67033;44.984;20.068;2023-03-21T15:25:37;17.70;74.70
57466;DHT22;67033;44.984;20.068;2023-03-21T15:28:03;17.70;76.20
57466;DHT22;67033;44.984;20.068;2023-03-21T15:30:30;17.70;80.90
57466;DHT22;67033;44.984;20.068;2023-03-21T15:33:05;17.80;77.10
57466;DHT22;67033;44.984;20.068;2023-03-21T15:35:54;17.70;75.90
57466;DHT22;67033;44.984;20.068;2023-03-21T15:47:01;17.80;76.10
57466;DHT22;67033;44.984;20.068;2023-03-21T15:51:39;17.70;76.50
57466;DHT22;67033;44.984;20.068;2023-03-21T15:54:11;17.70;78.70
57466;DHT22;67033;44.984;20.068;2023-03-21T15:56:38;17.70;79.40
57466;DHT22;67033;44.984;20.068;2023-03-21T15:59:13;17.70;79.90
57466;DHT22;67033;44.984;20.068;2023-03-21T16:01:39;17.70;79.10
57466;DHT22;67033;44.984;20.068;2023-03-21T16:04:08;17.70;78.90
57466;DHT22;67033;44.984;20.068;2023-03-21T16:06:36;17.60;78.60
57466;DHT22;67033;44.984;20.068;2023-03-21T16:09:14;17.60;79.20
57466;DHT22;67033;44.984;20.068;2023-03-21T16:11:51;17.60;80.00
57466;DHT22;67033;44.984;20.068;2023-03-21T16:14:18;17.50;80.20
57466;DHT22;67033;44.984;20.068;2023-03-21T16:16:45;17.50;80.70
57466;DHT22;67033;44.984;20.068;2023-03-21T16:19:11;17.50;81.40
57466;DHT22;67033;44.984;20.068;2023-03-21T16:21:37;17.50;80.90
57466;DHT22;67033;44.984;20.068;2023-03-21T16:24:05;17.40;82.00
57466;DHT22;67033;44.984;20.068;2023-03-21T16:26:36;17.40;83.20
57466;DHT22;67033;44.984;20.068;2023-03-21T16:31:31;17.50;94.30
57466;DHT22;67033;44.984;20.068;2023-03-21T16:33:57;17.40;83.10
57466;DHT22;67033;44.984;20.068;2023-03-21T16:36:27;17.30;84.10
57466;DHT22;67033;44.984;20.068;2023-03-21T16:38:54;17.30;82.30
57466;DHT22;67033;44.984;20.068;2023-03-21T16:41:22;17.30;82.10
57466;DHT22;67033;44.984;20.068;2023-03-21T16:43:48;17.20;82.50
57466;DHT22;67033;44.984;20.068;2023-03-21T16:46:17;17.30;83.20
57466;DHT22;67033;44.984;20.068;2023-03-21T16:48:45;17.30;85.30
57466;DHT22;67033;44.984;20.068;2023-03-21T16:51:13;17.30;83.00
57466;DHT22;67033;44.984;20.068;2023-03-21T16:53:39;17.30;82.60
57466;DHT22;67033;44.984;20.068;2023-03-21T16:56:07;17.30;83.50
57466;DHT22;67033;44.984;20.068;2023-03-21T16:58:34;17.30;84.50
57466;DHT22;67033;44.984;20.068;2023-03-21T17:01:00;17.20;81.80
57466;DHT22;67033;44.984;20.068;2023-03-21T17:03:26;17.10;82.90
57466;DHT22;67033;44.984;20.068;2023-03-21T17:05:52;17.00;85.70
57466;DHT22;67033;44.984;20.068;2023-03-21T17:08:18;17.10;83.60
57466;DHT22;67033;44.984;20.068;2023-03-21T17:10:46;17.00;83.60
57466;DHT22;67033;44.984;20.068;2023-03-21T17:13:12;16.90;84.90
57466;DHT22;67033;44.984;20.068;2023-03-21T17:15:38;16.90;83.90
57466;DHT22;67033;44.984;20.068;2023-03-21T17:18:05;16.90;84.80
57466;DHT22;67033;44.984;20.068;2023-03-21T17:20:33;16.80;83.50
57466;DHT22;67033;44.984;20.068;2023-03-21T17:22:59;16.80;83.60
57466;DHT22;67033;44.984;20.068;2023-03-21T17:25:26;16.70;84.50
57466;DHT22;67033;44.984;20.068;2023-03-21T17:27:52;16.60;84.50
57466;DHT22;67033;44.984;20.068;2023-03-21T17:30:27;16.60;85.90
57466;DHT22;67033;44.984;20.068;2023-03-21T17:32:53;16.60;84.40
57466;DHT22;67033;44.984;20.068;2023-03-21T17:35:20;16.50;85.10
57466;DHT22;67033;44.984;20.068;2023-03-21T17:37:47;16.40;85.90
57466;DHT22;67033;44.984;20.068;2023-03-21T17:42:44;16.40;87.90
57466;DHT22;67033;44.984;20.068;2023-03-21T17:45:10;16.40;88.10
57466;DHT22;67033;44.984;20.068;2023-03-21T17:47:36;16.40;88.60
57466;DHT22;67033;44.984;20.068;2023-03-21T17:50:05;16.40;89.20